»·PEaware :: N357EJ KINW-KPHX

N357EJ :: KINW-KPHX

FLIGHT INFORMATION

Flight Status: Arrived
Operator: Privately registered:
United States
More flights under this callsign
Pilot: Eric M. (23425)
Aircraft: BEECH AIRCRAFT BARON
(BE58)
More flights by this aircraft type
Origin: KINW Winslow-Lindbergh Regl
United States
Destination: KPHX Phoenix Sky Harbor Intl
United States
More flights between these airports :: More routes between these airports
Route: INW V12 OATES V327 PXR
File this flight plan on PilotEdge
Remarks: Alphabet challenge
Altitude:
(Current/Filed)
12,000ft
Speed:
(Current/Filed)
180kts
Departed: 24-Jan-21 08:58 AM
Arrived: 24-Jan-21 10:10 AM
Distance/Time
Traveled:
115nm/1:11
Distance/Time
To Go:
Arrived

Flight Plot

Page will automatically refresh every two minutes.

Flight plan parsing failed; only flown route is shown


Map Options




Map Legend


Flown Route
Filed Route
Departure Airport
Arrival Airport
Navaid (VOR, NDB)
Fix

Horizontal Profiles

Position Reports

Time Latitude Longitude Heading Altitude Ground
Speed
24-Jan-21 08:46 35.023141 -110.716444 359 4943ft 5kts
24-Jan-21 08:47 35.024186 -110.716452 0 4943ft 0kts
24-Jan-21 08:49 35.024186 -110.716452 0 4943ft 0kts
24-Jan-21 08:49 35.024186 -110.716452 0 4943ft 0kts
24-Jan-21 08:51 35.024186 -110.716452 0 4943ft 0kts
24-Jan-21 08:52 35.024186 -110.716452 0 4943ft 0kts
24-Jan-21 08:54 35.024186 -110.716452 0 4943ft 0kts
24-Jan-21 08:57 35.024186 -110.716452 0 4943ft 0kts
24-Jan-21 08:58 35.023356 -110.719774 238 4943ft 78kts
24-Jan-21 08:59 35.010731 -110.769295 338 6569ft 128kts
24-Jan-21 09:00 35.046332 -110.783845 329 8155ft 124kts
24-Jan-21 09:01 35.064835 -110.804024 272 9051ft 123kts
24-Jan-21 09:02 35.050414 -110.847962 248 10359ft 126kts
24-Jan-21 09:03 35.040588 -110.885371 247 11472ft 121kts
24-Jan-21 09:04 35.028176 -110.933056 249 12122ft 150kts
24-Jan-21 09:06 34.999113 -111.061719 250 11969ft 169kts
24-Jan-21 09:08 34.973563 -111.166560 278 11916ft 175kts
24-Jan-21 09:09 34.970794 -111.233030 256 11951ft 171kts
24-Jan-21 09:09 34.962194 -111.274433 255 11961ft 170kts
24-Jan-21 09:12 34.927953 -111.437319 253 11945ft 168kts
24-Jan-21 09:14 34.910847 -111.518211 251 11962ft 168kts
24-Jan-21 09:15 34.903572 -111.552525 251 11970ft 168kts
24-Jan-21 09:15 34.894578 -111.594866 250 11995ft 169kts
24-Jan-21 09:16 34.885592 -111.637079 249 12025ft 170kts
24-Jan-21 09:17 34.876262 -111.680808 248 12039ft 172kts
24-Jan-21 09:19 34.812998 -111.715830 187 12037ft 161kts
24-Jan-21 09:19 34.782856 -111.720205 186 12044ft 161kts
24-Jan-21 09:21 34.721574 -111.728169 186 12029ft 162kts
24-Jan-21 09:22 34.668396 -111.734899 186 12032ft 161kts
24-Jan-21 09:23 34.629468 -111.739807 186 12030ft 161kts
24-Jan-21 09:23 34.589621 -111.744829 186 12030ft 161kts
24-Jan-21 09:25 34.535760 -111.751608 186 11986ft 164kts
24-Jan-21 09:29 34.345924 -111.775425 186 11962ft 161kts
24-Jan-21 09:30 34.293753 -111.781952 186 11964ft 161kts
24-Jan-21 09:31 34.262252 -111.785890 186 11964ft 161kts
24-Jan-21 09:32 34.216314 -111.791621 186 11966ft 161kts
24-Jan-21 09:33 34.148379 -111.805466 190 11968ft 161kts
24-Jan-21 09:34 34.111574 -111.813985 190 11969ft 161kts
24-Jan-21 09:37 34.003161 -111.838167 188 11115ft 156kts
24-Jan-21 09:38 33.960940 -111.848114 189 10446ft 158kts
24-Jan-21 09:39 33.930109 -111.855974 192 9969ft 160kts
24-Jan-21 09:40 33.872296 -111.862351 189 9170ft 164kts
24-Jan-21 09:43 33.759617 -111.944237 221 7266ft 168kts
24-Jan-21 09:46 33.661125 -112.063628 221 6021ft 160kts
24-Jan-21 09:47 33.634786 -112.095845 221 6026ft 159kts
24-Jan-21 09:48 33.598289 -112.141097 225 5289ft 198kts
24-Jan-21 09:49 33.558896 -112.186153 219 4151ft 192kts
24-Jan-21 09:51 33.480381 -112.172886 131 2445ft 153kts
24-Jan-21 09:54 33.379118 -112.095116 168 4789ft 175kts
24-Jan-21 09:55 33.345036 -112.119280 259 5097ft 189kts
24-Jan-21 09:56 33.339552 -112.181863 267 5006ft 175kts
24-Jan-21 09:57 33.337097 -112.266172 271 5039ft 167kts
24-Jan-21 10:00 33.427693 -112.279968 72 4933ft 161kts
24-Jan-21 10:03 33.429006 -112.175633 92 3729ft 120kts
24-Jan-21 10:04 33.429401 -112.136094 90 2883ft 110kts
24-Jan-21 10:05 33.428815 -112.082243 93 2293ft 111kts
24-Jan-21 10:07 33.428848 -112.030281 88 1219ft 101kts
24-Jan-21 10:10 33.427023 -112.023924 107 1136ft 0kts
24-Jan-21 10:11 33.427023 -112.023924 107 1136ft 0kts

Navigation Log

Ident Type
Flight plan parsing failed, navigation log unavailable